sensor_id;sensor_type;location;lat;lon;timestamp;temperature;humidity
4090;DHT22;2059;48.538;12.146;2023-06-22T00:02:52;22.50;99.90
4090;DHT22;2059;48.538;12.146;2023-06-22T00:07:53;22.20;99.90
4090;DHT22;2059;48.538;12.146;2023-06-22T00:12:57;22.40;99.90
4090;DHT22;2059;48.538;12.146;2023-06-22T00:17:59;22.10;99.90
4090;DHT22;2059;48.538;12.146;2023-06-22T00:23:01;22.10;99.90
4090;DHT22;2059;48.538;12.146;2023-06-22T00:28:05;22.20;99.90
4090;DHT22;2059;48.538;12.146;2023-06-22T00:33:08;22.30;99.90
4090;DHT22;2059;48.538;12.146;2023-06-22T00:38:09;22.20;99.90
4090;DHT22;2059;48.538;12.146;2023-06-22T00:43:12;22.10;99.90
4090;DHT22;2059;48.538;12.146;2023-06-22T00:48:14;22.10;99.90
4090;DHT22;2059;48.538;12.146;2023-06-22T00:53:16;22.10;99.90
4090;DHT22;2059;48.538;12.146;2023-06-22T00:58:20;22.10;99.90
4090;DHT22;2059;48.538;12.146;2023-06-22T01:03:22;22.00;99.90
4090;DHT22;2059;48.538;12.146;2023-06-22T01:08:31;22.00;99.90
4090;DHT22;2059;48.538;12.146;2023-06-22T01:13:44;21.80;99.90
4090;DHT22;2059;48.538;12.146;2023-06-22T01:18:48;21.80;99.90
4090;DHT22;2059;48.538;12.146;2023-06-22T01:24:01;21.70;99.90
4090;DHT22;2059;48.538;12.146;2023-06-22T01:29:05;21.60;99.90
4090;DHT22;2059;48.538;12.146;2023-06-22T01:34:09;21.60;99.90
4090;DHT22;2059;48.538;12.146;2023-06-22T01:39:11;21.60;99.90
4090;DHT22;2059;48.538;12.146;2023-06-22T01:44:16;21.60;99.90
4090;DHT22;2059;48.538;12.146;2023-06-22T01:49:18;21.60;99.90
4090;DHT22;2059;48.538;12.146;2023-06-22T01:54:20;21.50;99.90
4090;DHT22;2059;48.538;12.146;2023-06-22T01:59:26;21.50;99.90
4090;DHT22;2059;48.538;12.146;2023-06-22T02:04:34;21.50;99.90
4090;DHT22;2059;48.538;12.146;2023-06-22T02:09:38;21.40;99.90
4090;DHT22;2059;48.538;12.146;2023-06-22T02:14:45;21.40;99.90
4090;DHT22;2059;48.538;12.146;2023-06-22T02:19:47;21.20;99.90
4090;DHT22;2059;48.538;12.146;2023-06-22T02:24:49;21.10;99.90
4090;DHT22;2059;48.538;12.146;2023-06-22T02:29:52;21.10;99.90
4090;DHT22;2059;48.538;12.146;2023-06-22T02:34:54;21.20;99.90
4090;DHT22;2059;48.538;12.146;2023-06-22T02:39:56;21.00;99.90
4090;DHT22;2059;48.538;12.146;2023-06-22T02:44:59;21.10;99.90
4090;DHT22;2059;48.538;12.146;2023-06-22T02:50:01;21.10;99.90
4090;DHT22;2059;48.538;12.146;2023-06-22T02:55:03;20.90;99.90
4090;DHT22;2059;48.538;12.146;2023-06-22T03:00:08;20.80;99.90
4090;DHT22;2059;48.538;12.146;2023-06-22T03:05:17;20.90;99.90
4090;DHT22;2059;48.538;12.146;2023-06-22T03:10:19;20.90;99.90
4090;DHT22;2059;48.538;12.146;2023-06-22T03:15:22;20.90;99.90
4090;DHT22;2059;48.538;12.146;2023-06-22T03:20:25;20.80;99.90
4090;DHT22;2059;48.538;12.146;2023-06-22T03:25:35;20.80;99.90
4090;DHT22;2059;48.538;12.146;2023-06-22T03:30:38;20.80;99.90
4090;DHT22;2059;48.538;12.146;2023-06-22T03:35:40;21.00;99.90
4090;DHT22;2059;48.538;12.146;2023-06-22T03:40:42;20.90;99.90
4090;DHT22;2059;48.538;12.146;2023-06-22T03:45:45;20.70;99.90
4090;DHT22;2059;48.538;12.146;2023-06-22T03:50:47;20.70;99.90
4090;DHT22;2059;48.538;12.146;2023-06-22T03:55:51;21.00;99.90
4090;DHT22;2059;48.538;12.146;2023-06-22T04:00:54;20.80;99.90
4090;DHT22;2059;48.538;12.146;2023-06-22T04:05:56;20.80;99.90
4090;DHT22;2059;48.538;12.146;2023-06-22T04:11:08;21.00;99.90
4090;DHT22;2059;48.538;12.146;2023-06-22T04:16:14;21.30;99.90
4090;DHT22;2059;48.538;12.146;2023-06-22T04:21:16;21.30;99.90
4090;DHT22;2059;48.538;12.146;2023-06-22T04:26:19;21.20;99.90
4090;DHT22;2059;48.538;12.146;2023-06-22T04:31:23;21.20;99.90
4090;DHT22;2059;48.538;12.146;2023-06-22T04:36:34;21.20;99.90
4090;DHT22;2059;48.538;12.146;2023-06-22T04:41:39;21.30;99.90
4090;DHT22;2059;48.538;12.146;2023-06-22T04:46:45;21.50;99.90
4090;DHT22;2059;48.538;12.146;2023-06-22T04:51:47;21.60;99.90
4090;DHT22;2059;48.538;12.146;2023-06-22T04:56:48;21.70;99.90
4090;DHT22;2059;48.538;12.146;2023-06-22T05:01:59;21.70;99.90
4090;DHT22;2059;48.538;12.146;2023-06-22T05:07:02;21.90;99.90
4090;DHT22;2059;48.538;12.146;2023-06-22T05:12:05;21.90;99.90
4090;DHT22;2059;48.538;12.146;2023-06-22T05:17:09;21.90;99.90
4090;DHT22;2059;48.538;12.146;2023-06-22T05:22:14;22.00;99.90
4090;DHT22;2059;48.538;12.146;2023-06-22T05:27:16;22.00;99.90
4090;DHT22;2059;48.538;12.146;2023-06-22T05:32:19;22.30;99.90
4090;DHT22;2059;48.538;12.146;2023-06-22T05:37:21;22.40;99.90
4090;DHT22;2059;48.538;12.146;2023-06-22T05:42:23;22.30;99.90
4090;DHT22;2059;48.538;12.146;2023-06-22T05:47:27;22.50;99.90
4090;DHT22;2059;48.538;12.146;2023-06-22T05:52:28;22.70;99.90
4090;DHT22;2059;48.538;12.146;2023-06-22T05:57:30;22.80;99.90
4090;DHT22;2059;48.538;12.146;2023-06-22T06:02:33;23.00;99.90
4090;DHT22;2059;48.538;12.146;2023-06-22T06:07:36;23.00;99.90
4090;DHT22;2059;48.538;12.146;2023-06-22T06:12:38;23.10;99.90
4090;DHT22;2059;48.538;12.146;2023-06-22T06:17:47;23.40;99.90
4090;DHT22;2059;48.538;12.146;2023-06-22T06:22:49;23.40;99.90
4090;DHT22;2059;48.538;12.146;2023-06-22T06:27:51;23.60;99.90
4090;DHT22;2059;48.538;12.146;2023-06-22T06:32:56;23.70;99.90
4090;DHT22;2059;48.538;12.146;2023-06-22T06:37:58;24.10;99.90
4090;DHT22;2059;48.538;12.146;2023-06-22T06:42:59;24.20;99.90
4090;DHT22;2059;48.538;12.146;2023-06-22T06:48:02;24.50;99.90
4090;DHT22;2059;48.538;12.146;2023-06-22T06:53:04;24.70;99.90
4090;DHT22;2059;48.538;12.146;2023-06-22T06:58:06;25.00;99.90
4090;DHT22;2059;48.538;12.146;2023-06-22T07:03:11;25.20;99.90
4090;DHT22;2059;48.538;12.146;2023-06-22T07:08:13;25.50;99.90
4090;DHT22;2059;48.538;12.146;2023-06-22T07:13:15;25.70;99.90
4090;DHT22;2059;48.538;12.146;2023-06-22T07:18:18;26.00;99.90
4090;DHT22;2059;48.538;12.146;2023-06-22T07:23:20;26.30;99.80
4090;DHT22;2059;48.538;12.146;2023-06-22T07:28:21;26.60;98.80
4090;DHT22;2059;48.538;12.146;2023-06-22T07:33:25;26.80;96.20
4090;DHT22;2059;48.538;12.146;2023-06-22T07:38:28;27.00;95.50
4090;DHT22;2059;48.538;12.146;2023-06-22T07:43:29;27.30;94.80
4090;DHT22;2059;48.538;12.146;2023-06-22T07:48:37;27.60;93.60
4090;DHT22;2059;48.538;12.146;2023-06-22T07:53:39;27.70;93.60
4090;DHT22;2059;48.538;12.146;2023-06-22T07:58:41;27.90;92.30
4090;DHT22;2059;48.538;12.146;2023-06-22T08:03:45;28.20;91.90
4090;DHT22;2059;48.538;12.146;2023-06-22T08:08:46;28.40;91.70
4090;DHT22;2059;48.538;12.146;2023-06-22T08:13:49;28.70;90.80
4090;DHT22;2059;48.538;12.146;2023-06-22T08:18:52;28.90;90.60
4090;DHT22;2059;48.538;12.146;2023-06-22T08:23:55;29.20;89.60
4090;DHT22;2059;48.538;12.146;2023-06-22T08:28:56;29.50;89.10
4090;DHT22;2059;48.538;12.146;2023-06-22T08:34:00;29.70;85.60
4090;DHT22;2059;48.538;12.146;2023-06-22T08:39:01;29.80;84.70
4090;DHT22;2059;48.538;12.146;2023-06-22T08:44:04;29.80;82.70
4090;DHT22;2059;48.538;12.146;2023-06-22T08:49:07;30.00;81.70
4090;DHT22;2059;48.538;12.146;2023-06-22T08:54:11;30.10;82.60
4090;DHT22;2059;48.538;12.146;2023-06-22T08:59:12;30.40;81.10
4090;DHT22;2059;48.538;12.146;2023-06-22T09:04:16;30.70;80.50
4090;DHT22;2059;48.538;12.146;2023-06-22T09:09:18;30.90;80.00
4090;DHT22;2059;48.538;12.146;2023-06-22T09:14:20;31.10;77.90
4090;DHT22;2059;48.538;12.146;2023-06-22T09:19:23;31.40;77.50
4090;DHT22;2059;48.538;12.146;2023-06-22T09:24:24;31.40;75.90
4090;DHT22;2059;48.538;12.146;2023-06-22T09:29:26;31.20;76.20
4090;DHT22;2059;48.538;12.146;2023-06-22T09:34:29;31.40;77.40
4090;DHT22;2059;48.538;12.146;2023-06-22T09:39:31;31.50;75.80
4090;DHT22;2059;48.538;12.146;2023-06-22T09:44:33;31.20;76.40
4090;DHT22;2059;48.538;12.146;2023-06-22T09:49:36;31.40;76.50
4090;DHT22;2059;48.538;12.146;2023-06-22T09:54:38;31.50;76.60
4090;DHT22;2059;48.538;12.146;2023-06-22T09:59:40;31.50;74.90
4090;DHT22;2059;48.538;12.146;2023-06-22T10:04:43;31.90;75.80
4090;DHT22;2059;48.538;12.146;2023-06-22T10:09:45;32.30;75.60
4090;DHT22;2059;48.538;12.146;2023-06-22T10:14:47;32.50;74.40
4090;DHT22;2059;48.538;12.146;2023-06-22T10:19:50;32.80;74.40
4090;DHT22;2059;48.538;12.146;2023-06-22T10:24:52;32.60;72.80
4090;DHT22;2059;48.538;12.146;2023-06-22T10:29:54;32.50;71.90
4090;DHT22;2059;48.538;12.146;2023-06-22T10:34:57;32.70;73.10
4090;DHT22;2059;48.538;12.146;2023-06-22T10:39:58;32.90;73.00
4090;DHT22;2059;48.538;12.146;2023-06-22T10:45:00;33.30;72.50
4090;DHT22;2059;48.538;12.146;2023-06-22T10:50:05;33.40;71.50
4090;DHT22;2059;48.538;12.146;2023-06-22T10:55:08;33.40;71.40
4090;DHT22;2059;48.538;12.146;2023-06-22T11:00:11;33.60;71.90
4090;DHT22;2059;48.538;12.146;2023-06-22T11:05:15;33.90;69.70
4090;DHT22;2059;48.538;12.146;2023-06-22T11:10:17;33.90;69.00
4090;DHT22;2059;48.538;12.146;2023-06-22T11:15:19;34.10;70.80
4090;DHT22;2059;48.538;12.146;2023-06-22T11:20:22;34.40;68.10
4090;DHT22;2059;48.538;12.146;2023-06-22T11:25:23;34.60;68.50
4090;DHT22;2059;48.538;12.146;2023-06-22T11:30:25;34.60;67.20
4090;DHT22;2059;48.538;12.146;2023-06-22T11:35:29;34.70;67.40
4090;DHT22;2059;48.538;12.146;2023-06-22T11:40:31;34.90;66.30
4090;DHT22;2059;48.538;12.146;2023-06-22T11:45:32;35.30;66.00
4090;DHT22;2059;48.538;12.146;2023-06-22T11:50:35;35.20;63.90
4090;DHT22;2059;48.538;12.146;2023-06-22T11:55:37;35.50;63.30
4090;DHT22;2059;48.538;12.146;2023-06-22T12:00:39;35.50;62.20
4090;DHT22;2059;48.538;12.146;2023-06-22T12:05:43;34.80;63.10
4090;DHT22;2059;48.538;12.146;2023-06-22T12:10:45;34.80;63.60
4090;DHT22;2059;48.538;12.146;2023-06-22T12:15:47;35.30;64.70
4090;DHT22;2059;48.538;12.146;2023-06-22T12:20:50;35.40;63.50
4090;DHT22;2059;48.538;12.146;2023-06-22T12:25:52;35.10;64.40
4090;DHT22;2059;48.538;12.146;2023-06-22T12:30:53;35.20;64.70
4090;DHT22;2059;48.538;12.146;2023-06-22T12:35:57;35.40;63.30
4090;DHT22;2059;48.538;12.146;2023-06-22T12:40:58;35.20;60.90
4090;DHT22;2059;48.538;12.146;2023-06-22T12:46:00;35.20;63.00
4090;DHT22;2059;48.538;12.146;2023-06-22T12:51:03;35.20;63.70
4090;DHT22;2059;48.538;12.146;2023-06-22T12:56:05;35.60;62.80
4090;DHT22;2059;48.538;12.146;2023-06-22T13:01:07;35.80;62.80
4090;DHT22;2059;48.538;12.146;2023-06-22T13:06:10;35.70;61.50
4090;DHT22;2059;48.538;12.146;2023-06-22T13:11:11;35.50;60.40
4090;DHT22;2059;48.538;12.146;2023-06-22T13:16:13;35.20;60.50
4090;DHT22;2059;48.538;12.146;2023-06-22T13:21:16;35.20;62.50
4090;DHT22;2059;48.538;12.146;2023-06-22T13:26:18;35.30;59.90
4090;DHT22;2059;48.538;12.146;2023-06-22T13:31:20;35.60;61.10
4090;DHT22;2059;48.538;12.146;2023-06-22T13:36:23;35.80;60.20
4090;DHT22;2059;48.538;12.146;2023-06-22T13:41:25;35.50;59.50
4090;DHT22;2059;48.538;12.146;2023-06-22T13:46:28;35.00;60.10
4090;DHT22;2059;48.538;12.146;2023-06-22T13:51:31;34.80;61.30
4090;DHT22;2059;48.538;12.146;2023-06-22T13:56:33;35.00;62.80
4090;DHT22;2059;48.538;12.146;2023-06-22T14:01:34;34.80;61.60
4090;DHT22;2059;48.538;12.146;2023-06-22T14:06:38;34.70;63.80
4090;DHT22;2059;48.538;12.146;2023-06-22T14:11:39;34.90;62.20
4090;DHT22;2059;48.538;12.146;2023-06-22T14:16:41;35.00;63.70
4090;DHT22;2059;48.538;12.146;2023-06-22T14:21:44;35.10;62.50
4090;DHT22;2059;48.538;12.146;2023-06-22T14:26:46;35.10;64.30
4090;DHT22;2059;48.538;12.146;2023-06-22T14:31:48;35.30;63.40
4090;DHT22;2059;48.538;12.146;2023-06-22T14:36:51;35.50;65.20
4090;DHT22;2059;48.538;12.146;2023-06-22T14:41:53;35.60;65.50
4090;DHT22;2059;48.538;12.146;2023-06-22T14:46:55;35.50;62.40
4090;DHT22;2059;48.538;12.146;2023-06-22T14:51:58;35.40;64.10
4090;DHT22;2059;48.538;12.146;2023-06-22T14:56:59;35.60;63.30
4090;DHT22;2059;48.538;12.146;2023-06-22T15:02:01;36.00;62.30
4090;DHT22;2059;48.538;12.146;2023-06-22T15:07:05;36.20;63.00
4090;DHT22;2059;48.538;12.146;2023-06-22T15:12:07;36.40;62.10
4090;DHT22;2059;48.538;12.146;2023-06-22T15:17:11;36.60;59.20
4090;DHT22;2059;48.538;12.146;2023-06-22T15:22:16;36.70;59.10
4090;DHT22;2059;48.538;12.146;2023-06-22T15:27:20;36.80;59.30
4090;DHT22;2059;48.538;12.146;2023-06-22T15:32:22;37.00;57.50
4090;DHT22;2059;48.538;12.146;2023-06-22T15:37:25;37.00;57.70
4090;DHT22;2059;48.538;12.146;2023-06-22T15:42:26;37.10;57.10
4090;DHT22;2059;48.538;12.146;2023-06-22T15:47:28;37.40;57.00
4090;DHT22;2059;48.538;12.146;2023-06-22T15:52:31;37.50;56.80
4090;DHT22;2059;48.538;12.146;2023-06-22T15:57:33;38.00;55.50
4090;DHT22;2059;48.538;12.146;2023-06-22T16:02:37;38.10;53.10
4090;DHT22;2059;48.538;12.146;2023-06-22T16:07:40;38.70;53.90
4090;DHT22;2059;48.538;12.146;2023-06-22T16:12:43;39.40;53.80
4090;DHT22;2059;48.538;12.146;2023-06-22T16:17:45;39.90;53.70
4090;DHT22;2059;48.538;12.146;2023-06-22T16:22:48;40.60;52.30
4090;DHT22;2059;48.538;12.146;2023-06-22T16:27:50;42.50;49.70
4090;DHT22;2059;48.538;12.146;2023-06-22T16:32:52;45.70;46.40
4090;DHT22;2059;48.538;12.146;2023-06-22T16:37:56;48.70;42.60
4090;DHT22;2059;48.538;12.146;2023-06-22T16:42:58;50.10;39.10
4090;DHT22;2059;48.538;12.146;2023-06-22T16:48:00;50.40;37.50
4090;DHT22;2059;48.538;12.146;2023-06-22T16:53:03;49.70;36.90
4090;DHT22;2059;48.538;12.146;2023-06-22T16:58:04;48.70;37.30
4090;DHT22;2059;48.538;12.146;2023-06-22T17:03:08;47.80;37.90
4090;DHT22;2059;48.538;12.146;2023-06-22T17:08:15;47.70;38.60
4090;DHT22;2059;48.538;12.146;2023-06-22T17:13:18;46.50;39.40
4090;DHT22;2059;48.538;12.146;2023-06-22T17:18:20;43.50;41.40
4090;DHT22;2059;48.538;12.146;2023-06-22T17:23:27;40.30;45.00
4090;DHT22;2059;48.538;12.146;2023-06-22T17:28:47;38.20;48.10
4090;DHT22;2059;48.538;12.146;2023-06-22T17:33:49;36.80;50.10
4090;DHT22;2059;48.538;12.146;2023-06-22T17:38:52;35.80;52.00
4090;DHT22;2059;48.538;12.146;2023-06-22T17:43:59;35.10;54.10
4090;DHT22;2059;48.538;12.146;2023-06-22T17:49:01;34.60;55.90
4090;DHT22;2059;48.538;12.146;2023-06-22T17:54:08;34.10;57.60
4090;DHT22;2059;48.538;12.146;2023-06-22T17:59:10;33.70;58.30
4090;DHT22;2059;48.538;12.146;2023-06-22T18:04:13;33.30;59.70
4090;DHT22;2059;48.538;12.146;2023-06-22T18:09:16;33.00;61.70
4090;DHT22;2059;48.538;12.146;2023-06-22T18:14:19;32.70;62.90
4090;DHT22;2059;48.538;12.146;2023-06-22T18:19:21;32.40;64.60
4090;DHT22;2059;48.538;12.146;2023-06-22T18:24:27;32.20;65.00
4090;DHT22;2059;48.538;12.146;2023-06-22T18:29:29;32.00;65.50
4090;DHT22;2059;48.538;12.146;2023-06-22T18:34:32;31.50;69.90
4090;DHT22;2059;48.538;12.146;2023-06-22T18:39:36;30.00;81.00
4090;DHT22;2059;48.538;12.146;2023-06-22T18:44:40;29.10;88.50
4090;DHT22;2059;48.538;12.146;2023-06-22T18:49:46;28.50;92.30
4090;DHT22;2059;48.538;12.146;2023-06-22T18:54:50;27.80;97.90
4090;DHT22;2059;48.538;12.146;2023-06-22T18:59:59;28.00;98.60
4090;DHT22;2059;48.538;12.146;2023-06-22T19:05:08;27.80;99.60
4090;DHT22;2059;48.538;12.146;2023-06-22T19:10:24;27.70;99.90
4090;DHT22;2059;48.538;12.146;2023-06-22T19:15:30;27.60;99.90
4090;DHT22;2059;48.538;12.146;2023-06-22T19:20:34;27.40;99.90
4090;DHT22;2059;48.538;12.146;2023-06-22T19:25:37;27.10;99.90
4090;DHT22;2059;48.538;12.146;2023-06-22T19:30:46;27.10;99.80
4090;DHT22;2059;48.538;12.146;2023-06-22T19:35:49;26.50;99.90
4090;DHT22;2059;48.538;12.146;2023-06-22T19:40:53;26.30;99.90
4090;DHT22;2059;48.538;12.146;2023-06-22T19:45:55;26.60;99.90
4090;DHT22;2059;48.538;12.146;2023-06-22T19:51:02;26.80;99.90
4090;DHT22;2059;48.538;12.146;2023-06-22T19:56:06;26.60;99.90
4090;DHT22;2059;48.538;12.146;2023-06-22T20:01:08;26.40;99.90
4090;DHT22;2059;48.538;12.146;2023-06-22T20:06:11;26.50;99.90
4090;DHT22;2059;48.538;12.146;2023-06-22T20:11:23;26.60;99.90
4090;DHT22;2059;48.538;12.146;2023-06-22T20:16:25;26.40;99.90
4090;DHT22;2059;48.538;12.146;2023-06-22T20:21:27;26.20;99.90
4090;DHT22;2059;48.538;12.146;2023-06-22T20:26:38;26.00;99.90
4090;DHT22;2059;48.538;12.146;2023-06-22T20:31:40;25.70;99.70
4090;DHT22;2059;48.538;12.146;2023-06-22T20:36:41;25.70;99.60
4090;DHT22;2059;48.538;12.146;2023-06-22T20:41:45;25.50;99.60
4090;DHT22;2059;48.538;12.146;2023-06-22T20:46:47;25.20;99.90
4090;DHT22;2059;48.538;12.146;2023-06-22T20:51:49;24.80;99.90
4090;DHT22;2059;48.538;12.146;2023-06-22T20:56:52;24.80;99.90
4090;DHT22;2059;48.538;12.146;2023-06-22T21:01:54;24.90;99.90
4090;DHT22;2059;48.538;12.146;2023-06-22T21:06:56;25.00;99.90
4090;DHT22;2059;48.538;12.146;2023-06-22T21:11:59;25.00;99.10
4090;DHT22;2059;48.538;12.146;2023-06-22T21:17:01;24.70;99.20
4090;DHT22;2059;48.538;12.146;2023-06-22T21:22:03;24.70;99.30
4090;DHT22;2059;48.538;12.146;2023-06-22T21:27:07;24.60;98.20
4090;DHT22;2059;48.538;12.146;2023-06-22T21:32:09;24.50;99.00
4090;DHT22;2059;48.538;12.146;2023-06-22T21:37:10;24.40;99.10
4090;DHT22;2059;48.538;12.146;2023-06-22T21:42:13;24.20;99.90
4090;DHT22;2059;48.538;12.146;2023-06-22T21:47:15;23.90;99.90
4090;DHT22;2059;48.538;12.146;2023-06-22T21:52:17;23.70;99.90
4090;DHT22;2059;48.538;12.146;2023-06-22T21:57:20;23.70;99.90
4090;DHT22;2059;48.538;12.146;2023-06-22T22:02:26;23.60;99.90
4090;DHT22;2059;48.538;12.146;2023-06-22T22:07:28;23.50;99.90
4090;DHT22;2059;48.538;12.146;2023-06-22T22:12:32;23.70;99.90
4090;DHT22;2059;48.538;12.146;2023-06-22T22:17:35;23.50;99.90
4090;DHT22;2059;48.538;12.146;2023-06-22T22:22:37;23.40;99.90
4090;DHT22;2059;48.538;12.146;2023-06-22T22:27:40;23.10;99.90
4090;DHT22;2059;48.538;12.146;2023-06-22T22:32:41;23.10;99.90
4090;DHT22;2059;48.538;12.146;2023-06-22T22:37:43;23.10;99.90
4090;DHT22;2059;48.538;12.146;2023-06-22T22:42:47;22.90;99.90
4090;DHT22;2059;48.538;12.146;2023-06-22T22:47:48;23.00;99.90
4090;DHT22;2059;48.538;12.146;2023-06-22T22:52:50;22.80;99.90
4090;DHT22;2059;48.538;12.146;2023-06-22T22:57:53;22.50;99.90
4090;DHT22;2059;48.538;12.146;2023-06-22T23:02:55;22.80;99.90
4090;DHT22;2059;48.538;12.146;2023-06-22T23:07:58;22.90;99.90
4090;DHT22;2059;48.538;12.146;2023-06-22T23:13:02;22.90;99.90
4090;DHT22;2059;48.538;12.146;2023-06-22T23:18:04;22.90;99.90
4090;DHT22;2059;48.538;12.146;2023-06-22T23:23:09;22.80;99.90
4090;DHT22;2059;48.538;12.146;2023-06-22T23:28:12;22.60;99.90
4090;DHT22;2059;48.538;12.146;2023-06-22T23:33:14;22.60;99.90
4090;DHT22;2059;48.538;12.146;2023-06-22T23:38:15;22.50;99.90
4090;DHT22;2059;48.538;12.146;2023-06-22T23:43:19;22.50;99.90
4090;DHT22;2059;48.538;12.146;2023-06-22T23:48:21;22.40;99.90
4090;DHT22;2059;48.538;12.146;2023-06-22T23:53:22;22.40;99.90
4090;DHT22;2059;48.538;12.146;2023-06-22T23:58:25;22.40;99.90
